sensor_id;sensor_type;location;lat;lon;timestamp;pressure;altitude;pressure_sealevel;temperature;humidity
69198;BME280;56311;50.298;8.514;2024-01-07T00:00:00;97290.0;;;3.6;67.2
69198;BME280;56311;50.298;8.514;2024-01-07T00:02:00;97290.0;;;3.6;67.3
69198;BME280;56311;50.298;8.514;2024-01-07T00:04:00;97290.0;;;3.5;66.7
69198;BME280;56311;50.298;8.514;2024-01-07T00:06:00;97290.0;;;3.6;66.2
69198;BME280;56311;50.298;8.514;2024-01-07T00:08:00;97300.0;;;3.6;66.3
69198;BME280;56311;50.298;8.514;2024-01-07T00:10:00;97290.0;;;3.6;65.7
69198;BME280;56311;50.298;8.514;2024-01-07T00:12:00;97300.0;;;3.7;65.0
69198;BME280;56311;50.298;8.514;2024-01-07T00:14:00;97300.0;;;3.8;65.0
69198;BME280;56311;50.298;8.514;2024-01-07T00:16:02;97300.0;;;3.9;64.6
69198;BME280;56311;50.298;8.514;2024-01-07T00:18:00;97300.0;;;3.9;64.9
69198;BME280;56311;50.298;8.514;2024-01-07T00:20:00;97300.0;;;3.9;64.4
69198;BME280;56311;50.298;8.514;2024-01-07T00:22:00;97310.0;;;3.8;64.9
69198;BME280;56311;50.298;8.514;2024-01-07T00:24:00;97310.0;;;3.8;64.9
69198;BME280;56311;50.298;8.514;2024-01-07T00:26:01;97310.0;;;3.8;65.8
69198;BME280;56311;50.298;8.514;2024-01-07T00:28:00;97310.0;;;3.7;65.3
69198;BME280;56311;50.298;8.514;2024-01-07T00:30:00;97310.0;;;3.7;65.8
69198;BME280;56311;50.298;8.514;2024-01-07T00:32:00;97310.0;;;3.7;65.8
69198;BME280;56311;50.298;8.514;2024-01-07T00:34:00;97310.0;;;3.7;65.4
69198;BME280;56311;50.298;8.514;2024-01-07T00:36:01;97310.0;;;3.7;64.8
69198;BME280;56311;50.298;8.514;2024-01-07T00:38:00;97310.0;;;3.7;66.5
69198;BME280;56311;50.298;8.514;2024-01-07T00:40:00;97320.0;;;3.6;67.3
69198;BME280;56311;50.298;8.514;2024-01-07T00:42:00;97310.0;;;3.6;66.9
69198;BME280;56311;50.298;8.514;2024-01-07T00:44:00;97320.0;;;3.6;65.8
69198;BME280;56311;50.298;8.514;2024-01-07T00:46:00;97320.0;;;3.5;66.4
69198;BME280;56311;50.298;8.514;2024-01-07T00:48:00;97320.0;;;3.6;65.7
69198;BME280;56311;50.298;8.514;2024-01-07T00:50:00;97320.0;;;3.6;65.0
69198;BME280;56311;50.298;8.514;2024-01-07T00:52:00;97320.0;;;3.7;64.5
69198;BME280;56311;50.298;8.514;2024-01-07T00:54:00;97330.0;;;3.8;64.9
69198;BME280;56311;50.298;8.514;2024-01-07T00:56:00;97330.0;;;3.8;64.2
69198;BME280;56311;50.298;8.514;2024-01-07T00:58:00;97330.0;;;3.8;64.6
69198;BME280;56311;50.298;8.514;2024-01-07T01:00:04;97330.0;;;3.8;64.8
69198;BME280;56311;50.298;8.514;2024-01-07T01:02:00;97340.0;;;3.8;65.2
69198;BME280;56311;50.298;8.514;2024-01-07T01:04:00;97340.0;;;3.8;64.6
69198;BME280;56311;50.298;8.514;2024-01-07T01:06:00;97340.0;;;3.8;65.8
69198;BME280;56311;50.298;8.514;2024-01-07T01:08:00;97340.0;;;3.7;66.0
69198;BME280;56311;50.298;8.514;2024-01-07T01:10:00;97340.0;;;3.7;65.4
69198;BME280;56311;50.298;8.514;2024-01-07T01:12:00;97350.0;;;3.6;65.6
69198;BME280;56311;50.298;8.514;2024-01-07T01:14:00;97350.0;;;3.6;65.1
69198;BME280;56311;50.298;8.514;2024-01-07T01:16:00;97350.0;;;3.7;65.3
69198;BME280;56311;50.298;8.514;2024-01-07T01:18:00;97350.0;;;3.7;65.5
69198;BME280;56311;50.298;8.514;2024-01-07T01:20:00;97350.0;;;3.7;65.0
69198;BME280;56311;50.298;8.514;2024-01-07T01:22:00;97360.0;;;3.7;64.4
69198;BME280;56311;50.298;8.514;2024-01-07T01:24:00;97350.0;;;3.7;65.5
69198;BME280;56311;50.298;8.514;2024-01-07T01:26:00;97350.0;;;3.7;65.4
69198;BME280;56311;50.298;8.514;2024-01-07T01:28:00;97360.0;;;3.8;64.8
69198;BME280;56311;50.298;8.514;2024-01-07T01:30:00;97360.0;;;3.7;65.3
69198;BME280;56311;50.298;8.514;2024-01-07T01:32:00;97360.0;;;3.8;64.9
69198;BME280;56311;50.298;8.514;2024-01-07T01:34:00;97360.0;;;3.7;65.7
69198;BME280;56311;50.298;8.514;2024-01-07T01:36:05;97360.0;;;3.6;65.3
69198;BME280;56311;50.298;8.514;2024-01-07T01:38:00;97360.0;;;3.7;64.9
69198;BME280;56311;50.298;8.514;2024-01-07T01:40:00;97360.0;;;3.7;65.4
69198;BME280;56311;50.298;8.514;2024-01-07T01:42:00;97360.0;;;3.6;66.2
69198;BME280;56311;50.298;8.514;2024-01-07T01:44:01;97360.0;;;3.7;64.8
69198;BME280;56311;50.298;8.514;2024-01-07T01:46:01;97370.0;;;3.7;64.7
69198;BME280;56311;50.298;8.514;2024-01-07T01:48:00;97360.0;;;3.7;66.4
69198;BME280;56311;50.298;8.514;2024-01-07T01:50:00;97370.0;;;3.6;66.0
69198;BME280;56311;50.298;8.514;2024-01-07T01:52:00;97370.0;;;3.6;65.9
69198;BME280;56311;50.298;8.514;2024-01-07T01:54:01;97370.0;;;3.6;65.5
69198;BME280;56311;50.298;8.514;2024-01-07T01:56:01;97370.0;;;3.6;66.6
69198;BME280;56311;50.298;8.514;2024-01-07T01:58:00;97370.0;;;3.5;66.9
69198;BME280;56311;50.298;8.514;2024-01-07T02:00:02;97370.0;;;3.5;65.8
69198;BME280;56311;50.298;8.514;2024-01-07T02:02:00;97370.0;;;3.6;66.3
69198;BME280;56311;50.298;8.514;2024-01-07T02:04:00;97370.0;;;3.5;67.2
69198;BME280;56311;50.298;8.514;2024-01-07T02:06:00;97370.0;;;3.5;66.8
69198;BME280;56311;50.298;8.514;2024-01-07T02:08:00;97370.0;;;3.6;66.3
69198;BME280;56311;50.298;8.514;2024-01-07T02:10:00;97370.0;;;3.6;66.1
69198;BME280;56311;50.298;8.514;2024-01-07T02:12:01;97370.0;;;3.6;65.2
69198;BME280;56311;50.298;8.514;2024-01-07T02:14:00;97370.0;;;3.6;64.8
69198;BME280;56311;50.298;8.514;2024-01-07T02:16:00;97380.0;;;3.6;65.3
69198;BME280;56311;50.298;8.514;2024-01-07T02:18:01;97380.0;;;3.6;66.1
69198;BME280;56311;50.298;8.514;2024-01-07T02:20:00;97380.0;;;3.6;66.6
69198;BME280;56311;50.298;8.514;2024-01-07T02:22:00;97380.0;;;3.5;66.3
69198;BME280;56311;50.298;8.514;2024-01-07T02:24:05;97380.0;;;3.5;67.6
69198;BME280;56311;50.298;8.514;2024-01-07T02:26:00;97380.0;;;3.4;67.7
69198;BME280;56311;50.298;8.514;2024-01-07T02:28:00;97380.0;;;3.4;67.2
69198;BME280;56311;50.298;8.514;2024-01-07T02:30:00;97380.0;;;3.4;68.4
69198;BME280;56311;50.298;8.514;2024-01-07T02:32:00;97380.0;;;3.3;68.1
69198;BME280;56311;50.298;8.514;2024-01-07T02:34:00;97380.0;;;3.3;68.8
69198;BME280;56311;50.298;8.514;2024-01-07T02:36:00;97380.0;;;3.3;68.7
69198;BME280;56311;50.298;8.514;2024-01-07T02:38:00;97380.0;;;3.3;67.5
69198;BME280;56311;50.298;8.514;2024-01-07T02:40:00;97390.0;;;3.4;66.7
69198;BME280;56311;50.298;8.514;2024-01-07T02:42:01;97380.0;;;3.4;66.7
69198;BME280;56311;50.298;8.514;2024-01-07T02:44:00;97380.0;;;3.4;66.9
69198;BME280;56311;50.298;8.514;2024-01-07T02:46:00;97380.0;;;3.5;66.8
69198;BME280;56311;50.298;8.514;2024-01-07T02:48:00;97380.0;;;3.4;67.4
69198;BME280;56311;50.298;8.514;2024-01-07T02:50:00;97380.0;;;3.5;67.0
69198;BME280;56311;50.298;8.514;2024-01-07T02:52:00;97380.0;;;3.5;67.2
69198;BME280;56311;50.298;8.514;2024-01-07T02:54:00;97380.0;;;3.4;67.5
69198;BME280;56311;50.298;8.514;2024-01-07T02:56:00;97380.0;;;3.4;67.3
69198;BME280;56311;50.298;8.514;2024-01-07T02:58:00;97380.0;;;3.5;66.8
69198;BME280;56311;50.298;8.514;2024-01-07T03:00:00;97390.0;;;3.5;67.1
69198;BME280;56311;50.298;8.514;2024-01-07T03:02:00;97390.0;;;3.5;67.6
69198;BME280;56311;50.298;8.514;2024-01-07T03:04:00;97390.0;;;3.6;67.0
69198;BME280;56311;50.298;8.514;2024-01-07T03:06:00;97390.0;;;3.5;66.8
69198;BME280;56311;50.298;8.514;2024-01-07T03:08:00;97390.0;;;3.5;67.9
69198;BME280;56311;50.298;8.514;2024-01-07T03:10:00;97390.0;;;3.4;69.7
69198;BME280;56311;50.298;8.514;2024-01-07T03:12:00;97390.0;;;3.2;69.2
69198;BME280;56311;50.298;8.514;2024-01-07T03:14:00;97390.0;;;3.3;69.5
69198;BME280;56311;50.298;8.514;2024-01-07T03:16:00;97380.0;;;3.2;69.3
69198;BME280;56311;50.298;8.514;2024-01-07T03:18:02;97390.0;;;3.3;68.7
69198;BME280;56311;50.298;8.514;2024-01-07T03:20:00;97390.0;;;3.3;70.4
69198;BME280;56311;50.298;8.514;2024-01-07T03:22:00;97390.0;;;3.2;70.7
69198;BME280;56311;50.298;8.514;2024-01-07T03:24:00;97390.0;;;3.1;70.5
69198;BME280;56311;50.298;8.514;2024-01-07T03:26:00;97400.0;;;3.2;69.5
69198;BME280;56311;50.298;8.514;2024-01-07T03:28:00;97390.0;;;3.2;68.4
69198;BME280;56311;50.298;8.514;2024-01-07T03:30:00;97400.0;;;3.3;69.1
69198;BME280;56311;50.298;8.514;2024-01-07T03:32:00;97400.0;;;3.3;68.1
69198;BME280;56311;50.298;8.514;2024-01-07T03:34:00;97400.0;;;3.3;67.8
69198;BME280;56311;50.298;8.514;2024-01-07T03:36:00;97400.0;;;3.4;67.1
69198;BME280;56311;50.298;8.514;2024-01-07T03:38:00;97400.0;;;3.5;67.2
69198;BME280;56311;50.298;8.514;2024-01-07T03:40:00;97400.0;;;3.5;67.6
69198;BME280;56311;50.298;8.514;2024-01-07T03:42:00;97400.0;;;3.3;69.5
69198;BME280;56311;50.298;8.514;2024-01-07T03:44:00;97400.0;;;3.3;69.3
69198;BME280;56311;50.298;8.514;2024-01-07T03:46:00;97400.0;;;3.3;69.0
69198;BME280;56311;50.298;8.514;2024-01-07T03:48:00;97400.0;;;3.4;68.0
69198;BME280;56311;50.298;8.514;2024-01-07T03:50:00;97400.0;;;3.3;67.8
69198;BME280;56311;50.298;8.514;2024-01-07T03:52:00;97400.0;;;3.2;68.8
69198;BME280;56311;50.298;8.514;2024-01-07T03:54:00;97400.0;;;3.2;68.6
69198;BME280;56311;50.298;8.514;2024-01-07T03:56:00;97400.0;;;3.2;68.6
69198;BME280;56311;50.298;8.514;2024-01-07T03:58:00;97400.0;;;3.1;69.1
69198;BME280;56311;50.298;8.514;2024-01-07T04:00:00;97410.0;;;3.1;68.5
69198;BME280;56311;50.298;8.514;2024-01-07T04:02:00;97410.0;;;3.1;67.7
69198;BME280;56311;50.298;8.514;2024-01-07T04:04:00;97410.0;;;3.2;68.4
69198;BME280;56311;50.298;8.514;2024-01-07T04:06:00;97410.0;;;3.2;67.2
69198;BME280;56311;50.298;8.514;2024-01-07T04:08:00;97410.0;;;3.2;68.7
69198;BME280;56311;50.298;8.514;2024-01-07T04:10:00;97410.0;;;3.1;69.1
69198;BME280;56311;50.298;8.514;2024-01-07T04:12:00;97410.0;;;3.1;69.1
69198;BME280;56311;50.298;8.514;2024-01-07T04:14:00;97420.0;;;3.1;68.8
69198;BME280;56311;50.298;8.514;2024-01-07T04:16:00;97410.0;;;3.1;69.2
69198;BME280;56311;50.298;8.514;2024-01-07T04:18:00;97410.0;;;3.1;71.1
69198;BME280;56311;50.298;8.514;2024-01-07T04:20:00;97420.0;;;3.1;70.5
69198;BME280;56311;50.298;8.514;2024-01-07T04:22:00;97420.0;;;3.1;70.2
69198;BME280;56311;50.298;8.514;2024-01-07T04:24:00;97420.0;;;3.1;70.6
69198;BME280;56311;50.298;8.514;2024-01-07T04:26:00;97420.0;;;3.2;70.5
69198;BME280;56311;50.298;8.514;2024-01-07T04:28:00;97420.0;;;3.2;69.8
69198;BME280;56311;50.298;8.514;2024-01-07T04:30:00;97430.0;;;3.2;69.0
69198;BME280;56311;50.298;8.514;2024-01-07T04:32:00;97430.0;;;3.3;69.0
69198;BME280;56311;50.298;8.514;2024-01-07T04:34:00;97430.0;;;3.4;70.0
69198;BME280;56311;50.298;8.514;2024-01-07T04:36:00;97430.0;;;3.3;70.4
69198;BME280;56311;50.298;8.514;2024-01-07T04:38:00;97430.0;;;3.3;71.4
69198;BME280;56311;50.298;8.514;2024-01-07T04:40:00;97430.0;;;3.2;72.0
69198;BME280;56311;50.298;8.514;2024-01-07T04:42:00;97440.0;;;3.2;71.9
69198;BME280;56311;50.298;8.514;2024-01-07T04:44:00;97440.0;;;3.2;71.3
69198;BME280;56311;50.298;8.514;2024-01-07T04:46:00;97440.0;;;3.1;70.7
69198;BME280;56311;50.298;8.514;2024-01-07T04:48:00;97440.0;;;3.2;71.2
69198;BME280;56311;50.298;8.514;2024-01-07T04:50:00;97440.0;;;3.3;70.1
69198;BME280;56311;50.298;8.514;2024-01-07T04:52:00;97440.0;;;3.4;70.2
69198;BME280;56311;50.298;8.514;2024-01-07T04:54:00;97440.0;;;3.5;70.0
69198;BME280;56311;50.298;8.514;2024-01-07T04:56:00;97450.0;;;3.4;70.2
69198;BME280;56311;50.298;8.514;2024-01-07T04:58:00;97460.0;;;3.4;71.0
69198;BME280;56311;50.298;8.514;2024-01-07T05:00:01;97460.0;;;3.4;70.9
69198;BME280;56311;50.298;8.514;2024-01-07T05:02:00;97460.0;;;3.4;70.8
69198;BME280;56311;50.298;8.514;2024-01-07T05:04:00;97460.0;;;3.4;70.3
69198;BME280;56311;50.298;8.514;2024-01-07T05:06:00;97470.0;;;3.4;69.9
69198;BME280;56311;50.298;8.514;2024-01-07T05:08:00;97470.0;;;3.3;70.8
69198;BME280;56311;50.298;8.514;2024-01-07T05:10:00;97470.0;;;3.3;71.3
69198;BME280;56311;50.298;8.514;2024-01-07T05:12:00;97470.0;;;3.2;71.8
69198;BME280;56311;50.298;8.514;2024-01-07T05:14:01;97480.0;;;3.2;71.3
69198;BME280;56311;50.298;8.514;2024-01-07T05:16:00;97470.0;;;3.2;71.1
69198;BME280;56311;50.298;8.514;2024-01-07T05:18:00;97480.0;;;3.2;71.4
69198;BME280;56311;50.298;8.514;2024-01-07T05:20:00;97480.0;;;3.2;71.5
69198;BME280;56311;50.298;8.514;2024-01-07T05:22:00;97490.0;;;3.2;70.9
69198;BME280;56311;50.298;8.514;2024-01-07T05:24:00;97490.0;;;3.3;71.3
69198;BME280;56311;50.298;8.514;2024-01-07T05:26:00;97490.0;;;3.1;72.2
69198;BME280;56311;50.298;8.514;2024-01-07T05:28:00;97490.0;;;3.2;71.7
69198;BME280;56311;50.298;8.514;2024-01-07T05:30:00;97500.0;;;3.2;71.8
69198;BME280;56311;50.298;8.514;2024-01-07T05:32:00;97500.0;;;3.2;71.3
69198;BME280;56311;50.298;8.514;2024-01-07T05:34:00;97500.0;;;3.2;71.4
69198;BME280;56311;50.298;8.514;2024-01-07T05:36:00;97500.0;;;3.2;71.5
69198;BME280;56311;50.298;8.514;2024-01-07T05:38:00;97500.0;;;3.1;71.5
69198;BME280;56311;50.298;8.514;2024-01-07T05:40:00;97500.0;;;3.1;71.2
69198;BME280;56311;50.298;8.514;2024-01-07T05:42:00;97500.0;;;3.1;71.7
69198;BME280;56311;50.298;8.514;2024-01-07T05:44:00;97510.0;;;3.1;71.3
69198;BME280;56311;50.298;8.514;2024-01-07T05:46:00;97510.0;;;3.0;71.9
69198;BME280;56311;50.298;8.514;2024-01-07T05:48:00;97510.0;;;3.0;72.0
69198;BME280;56311;50.298;8.514;2024-01-07T05:50:00;97520.0;;;3.0;72.1
69198;BME280;56311;50.298;8.514;2024-01-07T05:52:00;97520.0;;;3.0;72.4
69198;BME280;56311;50.298;8.514;2024-01-07T05:54:00;97520.0;;;3.0;72.4
69198;BME280;56311;50.298;8.514;2024-01-07T05:56:00;97520.0;;;3.0;72.0
69198;BME280;56311;50.298;8.514;2024-01-07T05:58:00;97520.0;;;3.1;70.7
69198;BME280;56311;50.298;8.514;2024-01-07T06:00:00;97530.0;;;3.1;70.7
69198;BME280;56311;50.298;8.514;2024-01-07T06:02:00;97540.0;;;3.1;70.2
69198;BME280;56311;50.298;8.514;2024-01-07T06:04:00;97540.0;;;3.1;70.5
69198;BME280;56311;50.298;8.514;2024-01-07T06:06:00;97540.0;;;3.1;70.9
69198;BME280;56311;50.298;8.514;2024-01-07T06:08:00;97540.0;;;3.1;70.0
69198;BME280;56311;50.298;8.514;2024-01-07T06:10:00;97550.0;;;3.1;70.3
69198;BME280;56311;50.298;8.514;2024-01-07T06:12:00;97550.0;;;3.1;70.7
69198;BME280;56311;50.298;8.514;2024-01-07T06:14:00;97560.0;;;3.1;70.2
69198;BME280;56311;50.298;8.514;2024-01-07T06:16:00;97560.0;;;3.2;70.0
69198;BME280;56311;50.298;8.514;2024-01-07T06:18:00;97560.0;;;3.1;69.9
69198;BME280;56311;50.298;8.514;2024-01-07T06:20:00;97560.0;;;3.0;69.3
69198;BME280;56311;50.298;8.514;2024-01-07T06:22:00;97570.0;;;3.0;68.6
69198;BME280;56311;50.298;8.514;2024-01-07T06:24:00;97570.0;;;3.0;69.7
69198;BME280;56311;50.298;8.514;2024-01-07T06:26:02;97580.0;;;3.1;69.8
69198;BME280;56311;50.298;8.514;2024-01-07T06:28:00;97590.0;;;3.4;69.4
69198;BME280;56311;50.298;8.514;2024-01-07T06:30:00;97590.0;;;3.5;69.3
69198;BME280;56311;50.298;8.514;2024-01-07T06:32:01;97590.0;;;3.4;69.4
69198;BME280;56311;50.298;8.514;2024-01-07T06:34:00;97590.0;;;3.3;69.5
69198;BME280;56311;50.298;8.514;2024-01-07T06:36:00;97600.0;;;3.2;69.4
69198;BME280;56311;50.298;8.514;2024-01-07T06:38:00;97600.0;;;3.3;69.8
69198;BME280;56311;50.298;8.514;2024-01-07T06:40:00;97600.0;;;3.4;69.0
69198;BME280;56311;50.298;8.514;2024-01-07T06:42:00;97600.0;;;3.4;68.9
69198;BME280;56311;50.298;8.514;2024-01-07T06:44:00;97610.0;;;3.2;69.3
69198;BME280;56311;50.298;8.514;2024-01-07T06:46:00;97610.0;;;2.9;70.5
69198;BME280;56311;50.298;8.514;2024-01-07T06:48:00;97610.0;;;2.7;70.2
69198;BME280;56311;50.298;8.514;2024-01-07T06:50:00;97610.0;;;2.6;70.8
69198;BME280;56311;50.298;8.514;2024-01-07T06:52:00;97610.0;;;2.5;71.7
69198;BME280;56311;50.298;8.514;2024-01-07T06:54:00;97620.0;;;2.3;71.0
69198;BME280;56311;50.298;8.514;2024-01-07T06:56:00;97630.0;;;2.3;70.5
69198;BME280;56311;50.298;8.514;2024-01-07T06:58:00;97630.0;;;2.3;71.5
69198;BME280;56311;50.298;8.514;2024-01-07T07:00:00;97640.0;;;2.2;72.0
69198;BME280;56311;50.298;8.514;2024-01-07T07:02:00;97640.0;;;2.2;71.1
69198;BME280;56311;50.298;8.514;2024-01-07T07:04:00;97640.0;;;2.3;70.7
69198;BME280;56311;50.298;8.514;2024-01-07T07:06:00;97640.0;;;2.2;70.8
69198;BME280;56311;50.298;8.514;2024-01-07T07:08:01;97640.0;;;2.3;70.8
69198;BME280;56311;50.298;8.514;2024-01-07T07:10:00;97640.0;;;2.3;69.8
69198;BME280;56311;50.298;8.514;2024-01-07T07:12:00;97650.0;;;2.3;69.4
69198;BME280;56311;50.298;8.514;2024-01-07T07:14:00;97650.0;;;2.3;69.6
69198;BME280;56311;50.298;8.514;2024-01-07T07:16:00;97650.0;;;2.3;69.4
69198;BME280;56311;50.298;8.514;2024-01-07T07:18:00;97650.0;;;2.3;69.2
69198;BME280;56311;50.298;8.514;2024-01-07T07:20:00;97660.0;;;2.3;69.2
69198;BME280;56311;50.298;8.514;2024-01-07T07:22:00;97650.0;;;2.3;69.4
69198;BME280;56311;50.298;8.514;2024-01-07T07:24:00;97650.0;;;2.3;69.0
69198;BME280;56311;50.298;8.514;2024-01-07T07:26:00;97660.0;;;2.3;68.7
69198;BME280;56311;50.298;8.514;2024-01-07T07:28:00;97660.0;;;2.3;68.4
69198;BME280;56311;50.298;8.514;2024-01-07T07:30:00;97670.0;;;2.3;68.6
69198;BME280;56311;50.298;8.514;2024-01-07T07:32:00;97670.0;;;2.3;68.9
69198;BME280;56311;50.298;8.514;2024-01-07T07:34:00;97680.0;;;2.3;69.1
69198;BME280;56311;50.298;8.514;2024-01-07T07:36:00;97690.0;;;2.3;70.3
69198;BME280;56311;50.298;8.514;2024-01-07T07:38:00;97680.0;;;2.3;69.8
69198;BME280;56311;50.298;8.514;2024-01-07T07:40:00;97690.0;;;2.3;69.2
69198;BME280;56311;50.298;8.514;2024-01-07T07:42:00;97690.0;;;2.2;69.9
69198;BME280;56311;50.298;8.514;2024-01-07T07:44:00;97700.0;;;2.2;69.8
69198;BME280;56311;50.298;8.514;2024-01-07T07:46:00;97700.0;;;2.2;68.8
69198;BME280;56311;50.298;8.514;2024-01-07T07:48:00;97710.0;;;2.2;69.3
69198;BME280;56311;50.298;8.514;2024-01-07T07:50:00;97720.0;;;2.2;69.0
69198;BME280;56311;50.298;8.514;2024-01-07T07:52:00;97710.0;;;2.2;70.2
69198;BME280;56311;50.298;8.514;2024-01-07T07:54:00;97710.0;;;2.1;70.6
69198;BME280;56311;50.298;8.514;2024-01-07T07:56:01;97710.0;;;2.1;69.8
69198;BME280;56311;50.298;8.514;2024-01-07T07:58:00;97710.0;;;2.1;69.4
69198;BME280;56311;50.298;8.514;2024-01-07T08:00:00;97710.0;;;2.1;69.0
69198;BME280;56311;50.298;8.514;2024-01-07T08:02:00;97720.0;;;2.1;69.0
69198;BME280;56311;50.298;8.514;2024-01-07T08:04:00;97720.0;;;2.1;70.2
69198;BME280;56311;50.298;8.514;2024-01-07T08:06:00;97720.0;;;2.1;70.7
69198;BME280;56311;50.298;8.514;2024-01-07T08:08:00;97720.0;;;2.1;72.7
69198;BME280;56311;50.298;8.514;2024-01-07T08:10:00;97720.0;;;2.2;70.8
69198;BME280;56311;50.298;8.514;2024-01-07T08:12:00;97720.0;;;2.3;69.6
69198;BME280;56311;50.298;8.514;2024-01-07T08:14:00;97730.0;;;2.3;70.0
69198;BME280;56311;50.298;8.514;2024-01-07T08:16:00;97730.0;;;2.2;70.2
69198;BME280;56311;50.298;8.514;2024-01-07T08:18:01;97730.0;;;2.2;69.9
69198;BME280;56311;50.298;8.514;2024-01-07T08:20:00;97730.0;;;2.1;70.0
69198;BME280;56311;50.298;8.514;2024-01-07T08:22:00;97730.0;;;2.1;69.3
69198;BME280;56311;50.298;8.514;2024-01-07T08:24:00;97730.0;;;2.1;70.3
69198;BME280;56311;50.298;8.514;2024-01-07T08:26:02;97740.0;;;2.0;72.4
69198;BME280;56311;50.298;8.514;2024-01-07T08:28:00;97740.0;;;2.2;71.0
69198;BME280;56311;50.298;8.514;2024-01-07T08:30:01;97740.0;;;2.6;70.4
69198;BME280;56311;50.298;8.514;2024-01-07T08:32:00;97740.0;;;2.9;67.9
69198;BME280;56311;50.298;8.514;2024-01-07T08:34:00;97740.0;;;2.8;66.8
69198;BME280;56311;50.298;8.514;2024-01-07T08:36:00;97750.0;;;2.7;68.0
69198;BME280;56311;50.298;8.514;2024-01-07T08:38:00;97760.0;;;2.6;69.0
69198;BME280;56311;50.298;8.514;2024-01-07T08:40:00;97750.0;;;2.4;68.4
69198;BME280;56311;50.298;8.514;2024-01-07T08:42:00;97760.0;;;2.4;68.5
69198;BME280;56311;50.298;8.514;2024-01-07T08:44:00;97760.0;;;2.2;69.3
69198;BME280;56311;50.298;8.514;2024-01-07T08:46:00;97760.0;;;2.1;68.5
69198;BME280;56311;50.298;8.514;2024-01-07T08:48:00;97760.0;;;2.1;69.2
69198;BME280;56311;50.298;8.514;2024-01-07T08:50:00;97760.0;;;2.1;68.5
69198;BME280;56311;50.298;8.514;2024-01-07T08:52:00;97770.0;;;2.0;68.5
69198;BME280;56311;50.298;8.514;2024-01-07T08:54:00;97770.0;;;2.0;69.0
69198;BME280;56311;50.298;8.514;2024-01-07T08:56:00;97770.0;;;1.9;69.2
69198;BME280;56311;50.298;8.514;2024-01-07T08:58:00;97770.0;;;1.9;69.5
69198;BME280;56311;50.298;8.514;2024-01-07T09:00:00;97770.0;;;1.9;69.0
69198;BME280;56311;50.298;8.514;2024-01-07T09:02:00;97770.0;;;1.8;69.2
69198;BME280;56311;50.298;8.514;2024-01-07T09:04:00;97780.0;;;1.8;71.2
69198;BME280;56311;50.298;8.514;2024-01-07T09:06:00;97790.0;;;2.0;69.4
69198;BME280;56311;50.298;8.514;2024-01-07T09:08:00;97780.0;;;2.3;70.6
69198;BME280;56311;50.298;8.514;2024-01-07T09:10:00;97790.0;;;2.5;66.2
69198;BME280;56311;50.298;8.514;2024-01-07T09:12:00;97790.0;;;2.5;67.2
69198;BME280;56311;50.298;8.514;2024-01-07T09:14:00;97790.0;;;2.3;67.1
69198;BME280;56311;50.298;8.514;2024-01-07T09:16:00;97790.0;;;2.2;68.0
69198;BME280;56311;50.298;8.514;2024-01-07T09:18:01;97800.0;;;2.0;68.5
69198;BME280;56311;50.298;8.514;2024-01-07T09:20:00;97800.0;;;2.0;68.5
69198;BME280;56311;50.298;8.514;2024-01-07T09:22:00;97810.0;;;1.8;68.6
69198;BME280;56311;50.298;8.514;2024-01-07T09:24:00;97810.0;;;1.8;68.7
69198;BME280;56311;50.298;8.514;2024-01-07T09:26:00;97820.0;;;1.8;68.0
69198;BME280;56311;50.298;8.514;2024-01-07T09:28:00;97820.0;;;1.8;68.1
69198;BME280;56311;50.298;8.514;2024-01-07T09:30:00;97820.0;;;1.8;67.5
69198;BME280;56311;50.298;8.514;2024-01-07T09:32:00;97820.0;;;1.8;67.0
69198;BME280;56311;50.298;8.514;2024-01-07T09:34:00;97820.0;;;1.8;67.4
69198;BME280;56311;50.298;8.514;2024-01-07T09:36:00;97820.0;;;1.8;68.1
69198;BME280;56311;50.298;8.514;2024-01-07T09:38:00;97830.0;;;1.7;68.9
69198;BME280;56311;50.298;8.514;2024-01-07T09:40:00;97830.0;;;1.6;69.6
69198;BME280;56311;50.298;8.514;2024-01-07T09:42:00;97830.0;;;1.6;69.2
69198;BME280;56311;50.298;8.514;2024-01-07T09:44:00;97840.0;;;1.6;69.6
69198;BME280;56311;50.298;8.514;2024-01-07T09:46:01;97840.0;;;1.6;69.7
69198;BME280;56311;50.298;8.514;2024-01-07T09:48:00;97840.0;;;1.5;69.7
69198;BME280;56311;50.298;8.514;2024-01-07T09:50:00;97840.0;;;1.6;68.3
69198;BME280;56311;50.298;8.514;2024-01-07T09:52:00;97840.0;;;1.5;68.4
69198;BME280;56311;50.298;8.514;2024-01-07T09:54:02;97840.0;;;1.5;68.8
69198;BME280;56311;50.298;8.514;2024-01-07T09:56:06;97840.0;;;1.5;68.9
69198;BME280;56311;50.298;8.514;2024-01-07T09:58:00;97850.0;;;1.8;66.3
69198;BME280;56311;50.298;8.514;2024-01-07T10:00:01;97840.0;;;2.0;65.5
69198;BME280;56311;50.298;8.514;2024-01-07T10:02:00;97840.0;;;1.9;65.3
69198;BME280;56311;50.298;8.514;2024-01-07T10:04:00;97840.0;;;1.9;65.3
69198;BME280;56311;50.298;8.514;2024-01-07T10:06:00;97840.0;;;1.8;65.0
69198;BME280;56311;50.298;8.514;2024-01-07T10:08:00;97840.0;;;1.8;65.3
69198;BME280;56311;50.298;8.514;2024-01-07T10:10:10;97850.0;;;1.7;66.0
69198;BME280;56311;50.298;8.514;2024-01-07T10:12:00;97840.0;;;1.6;65.6
69198;BME280;56311;50.298;8.514;2024-01-07T10:14:00;97850.0;;;1.6;65.0
69198;BME280;56311;50.298;8.514;2024-01-07T10:16:00;97840.0;;;1.6;65.8
69198;BME280;56311;50.298;8.514;2024-01-07T10:18:03;97850.0;;;1.6;66.7
69198;BME280;56311;50.298;8.514;2024-01-07T10:20:00;97850.0;;;1.6;66.4
69198;BME280;56311;50.298;8.514;2024-01-07T10:22:01;97850.0;;;1.6;65.3
69198;BME280;56311;50.298;8.514;2024-01-07T10:24:07;97850.0;;;1.6;65.8
69198;BME280;56311;50.298;8.514;2024-01-07T10:26:00;97850.0;;;1.6;66.0
69198;BME280;56311;50.298;8.514;2024-01-07T10:28:01;97860.0;;;1.5;66.7
69198;BME280;56311;50.298;8.514;2024-01-07T10:30:01;97850.0;;;1.5;66.0
69198;BME280;56311;50.298;8.514;2024-01-07T10:32:01;97860.0;;;1.5;66.7
69198;BME280;56311;50.298;8.514;2024-01-07T10:34:00;97860.0;;;1.5;66.0
69198;BME280;56311;50.298;8.514;2024-01-07T10:36:02;97860.0;;;1.5;65.6
69198;BME280;56311;50.298;8.514;2024-01-07T10:38:01;97860.0;;;1.4;66.2
69198;BME280;56311;50.298;8.514;2024-01-07T10:40:00;97860.0;;;1.4;65.7
69198;BME280;56311;50.298;8.514;2024-01-07T10:42:00;97870.0;;;1.5;66.1
69198;BME280;56311;50.298;8.514;2024-01-07T10:44:00;97860.0;;;1.4;66.2
69198;BME280;56311;50.298;8.514;2024-01-07T10:46:00;97860.0;;;1.2;66.3
69198;BME280;56311;50.298;8.514;2024-01-07T10:48:04;97870.0;;;1.3;65.8
69198;BME280;56311;50.298;8.514;2024-01-07T10:50:02;97870.0;;;1.3;68.0
69198;BME280;56311;50.298;8.514;2024-01-07T10:52:03;97870.0;;;1.7;64.3
69198;BME280;56311;50.298;8.514;2024-01-07T10:54:00;97870.0;;;1.9;63.1
69198;BME280;56311;50.298;8.514;2024-01-07T10:56:03;97880.0;;;1.7;63.8
69198;BME280;56311;50.298;8.514;2024-01-07T10:58:00;97870.0;;;1.6;64.2
69198;BME280;56311;50.298;8.514;2024-01-07T11:00:01;97880.0;;;1.6;64.1
69198;BME280;56311;50.298;8.514;2024-01-07T11:02:00;97880.0;;;1.5;64.6
69198;BME280;56311;50.298;8.514;2024-01-07T11:04:04;97880.0;;;1.4;64.3
69198;BME280;56311;50.298;8.514;2024-01-07T11:06:04;97880.0;;;1.3;64.2
69198;BME280;56311;50.298;8.514;2024-01-07T11:08:07;97870.0;;;1.3;63.6
69198;BME280;56311;50.298;8.514;2024-01-07T11:10:05;97880.0;;;1.4;63.9